Montezuma, Kansas
Current Conditions -  °F | °C
As of 7:54 PM on Monday 24 Nov 2014 (Local Time) from KGCK Reporting Station
Overcast Overcast  
Wind Chill: 31°   Ceiling: 7500
Heat Index: 37°   Visibility: 10mi
Dew Point: 25°   Wind: 8mph
Humidity: 62%   Direction: 10°N
Pressure: 30.11"   Gusts: NA
Location:  37.6°N, 100.44°W
Report Text: KGCK 250154Z 01007KT 10SM OVC075 03/M04 A3011 RMK AO2 SLP214 T00281039
Loading
Personal Weather Stations






























Interactive Weather Map New forecast layout! Learn more

10-Day Weather Forecast

Advertisements
Track Severe Weather on mobile